sensor_id;sensor_type;location;lat;lon;timestamp;pressure;altitude;pressure_sealevel;temperature;humidity
70053;BME280;57398;52.032;4.376;2023-10-08T00:00:53;102965.97;;;17.75;nan
70053;BME280;57398;52.032;4.376;2023-10-08T00:03:43;102972.09;;;17.69;nan
70053;BME280;57398;52.032;4.376;2023-10-08T00:06:37;102976.09;;;17.72;nan
70053;BME280;57398;52.032;4.376;2023-10-08T00:09:26;102973.63;;;17.84;nan
70053;BME280;57398;52.032;4.376;2023-10-08T00:12:14;102969.94;;;17.59;nan
70053;BME280;57398;52.032;4.376;2023-10-08T00:15:04;102974.81;;;17.56;nan
70053;BME280;57398;52.032;4.376;2023-10-08T00:20:46;102954.28;;;17.40;nan
70053;BME280;57398;52.032;4.376;2023-10-08T00:23:43;102949.09;;;17.33;nan
70053;BME280;57398;52.032;4.376;2023-10-08T00:26:38;102929.13;;;17.25;nan
70053;BME280;57398;52.032;4.376;2023-10-08T00:29:28;102922.41;;;17.29;nan
70053;BME280;57398;52.032;4.376;2023-10-08T00:32:18;102917.75;;;17.31;nan
70053;BME280;57398;52.032;4.376;2023-10-08T00:38:00;102909.69;;;17.33;nan
70053;BME280;57398;52.032;4.376;2023-10-08T00:40:57;102899.41;;;17.25;nan
70053;BME280;57398;52.032;4.376;2023-10-08T00:43:47;102898.66;;;17.17;nan
70053;BME280;57398;52.032;4.376;2023-10-08T00:46:36;102894.47;;;17.10;nan
70053;BME280;57398;52.032;4.376;2023-10-08T00:49:31;102889.22;;;17.10;nan
70053;BME280;57398;52.032;4.376;2023-10-08T00:52:35;102899.25;;;17.20;nan
70053;BME280;57398;52.032;4.376;2023-10-08T00:55:29;102901.69;;;17.21;nan
70053;BME280;57398;52.032;4.376;2023-10-08T00:58:22;102917.63;;;17.20;nan
70053;BME280;57398;52.032;4.376;2023-10-08T01:01:14;102919.50;;;17.12;nan
70053;BME280;57398;52.032;4.376;2023-10-08T01:04:04;102920.25;;;17.20;nan
70053;BME280;57398;52.032;4.376;2023-10-08T01:06:58;102930.31;;;17.29;nan
70053;BME280;57398;52.032;4.376;2023-10-08T01:09:48;102938.97;;;17.36;nan
70053;BME280;57398;52.032;4.376;2023-10-08T01:12:37;102926.25;;;17.33;nan
70053;BME280;57398;52.032;4.376;2023-10-08T01:15:43;102933.00;;;17.23;nan
70053;BME280;57398;52.032;4.376;2023-10-08T01:18:34;102944.06;;;17.25;nan
70053;BME280;57398;52.032;4.376;2023-10-08T01:21:29;102918.28;;;17.15;nan
70053;BME280;57398;52.032;4.376;2023-10-08T01:24:22;102913.81;;;17.15;nan
70053;BME280;57398;52.032;4.376;2023-10-08T01:27:11;102928.38;;;17.18;nan
70053;BME280;57398;52.032;4.376;2023-10-08T01:32:56;102922.00;;;17.32;nan
70053;BME280;57398;52.032;4.376;2023-10-08T01:35:44;102940.44;;;17.26;nan
70053;BME280;57398;52.032;4.376;2023-10-08T01:38:32;102940.44;;;17.26;nan
70053;BME280;57398;52.032;4.376;2023-10-08T01:41:22;102936.94;;;17.38;nan
70053;BME280;57398;52.032;4.376;2023-10-08T01:44:17;102951.72;;;17.33;nan
70053;BME280;57398;52.032;4.376;2023-10-08T01:47:05;102968.28;;;17.33;nan
70053;BME280;57398;52.032;4.376;2023-10-08T01:49:53;102963.66;;;17.29;nan
70053;BME280;57398;52.032;4.376;2023-10-08T01:52:51;102975.94;;;17.35;nan
70053;BME280;57398;52.032;4.376;2023-10-08T01:55:40;102981.16;;;17.42;nan
70053;BME280;57398;52.032;4.376;2023-10-08T01:58:38;102978.75;;;17.40;nan
70053;BME280;57398;52.032;4.376;2023-10-08T02:01:26;102981.75;;;17.44;nan
70053;BME280;57398;52.032;4.376;2023-10-08T02:04:15;102982.75;;;17.43;nan
70053;BME280;57398;52.032;4.376;2023-10-08T02:07:06;102975.75;;;17.36;nan
70053;BME280;57398;52.032;4.376;2023-10-08T02:09:55;102968.66;;;17.37;nan
70053;BME280;57398;52.032;4.376;2023-10-08T02:12:44;102967.47;;;17.33;nan
70053;BME280;57398;52.032;4.376;2023-10-08T02:15:34;102957.41;;;17.30;nan
70053;BME280;57398;52.032;4.376;2023-10-08T02:18:22;102953.38;;;17.27;nan
70053;BME280;57398;52.032;4.376;2023-10-08T02:21:13;102942.06;;;17.20;nan
70053;BME280;57398;52.032;4.376;2023-10-08T02:24:01;102928.19;;;17.13;nan
70053;BME280;57398;52.032;4.376;2023-10-08T02:26:51;102918.53;;;17.07;nan
70053;BME280;57398;52.032;4.376;2023-10-08T02:29:40;102921.56;;;17.04;nan
70053;BME280;57398;52.032;4.376;2023-10-08T02:32:30;102928.66;;;17.03;nan
70053;BME280;57398;52.032;4.376;2023-10-08T02:35:19;102927.25;;;17.01;nan
70053;BME280;57398;52.032;4.376;2023-10-08T02:38:07;102917.38;;;16.96;nan
70053;BME280;57398;52.032;4.376;2023-10-08T02:40:56;102920.00;;;16.96;nan
70053;BME280;57398;52.032;4.376;2023-10-08T02:43:46;102915.38;;;16.91;nan
70053;BME280;57398;52.032;4.376;2023-10-08T02:46:35;102924.25;;;16.90;nan
70053;BME280;57398;52.032;4.376;2023-10-08T02:49:25;102920.25;;;16.81;nan
70053;BME280;57398;52.032;4.376;2023-10-08T02:52:18;102927.31;;;16.74;nan
70053;BME280;57398;52.032;4.376;2023-10-08T02:55:08;102910.81;;;16.67;nan
70053;BME280;57398;52.032;4.376;2023-10-08T03:00:58;102911.84;;;16.59;nan
70053;BME280;57398;52.032;4.376;2023-10-08T03:03:47;102907.44;;;16.53;nan
70053;BME280;57398;52.032;4.376;2023-10-08T03:06:37;102907.25;;;16.48;nan
70053;BME280;57398;52.032;4.376;2023-10-08T03:12:19;102893.34;;;16.41;nan
70053;BME280;57398;52.032;4.376;2023-10-08T03:15:12;102893.97;;;16.36;nan
70053;BME280;57398;52.032;4.376;2023-10-08T03:18:01;102901.66;;;16.31;nan
70053;BME280;57398;52.032;4.376;2023-10-08T03:20:57;102912.78;;;16.26;nan
70053;BME280;57398;52.032;4.376;2023-10-08T03:23:51;102912.56;;;16.21;nan
70053;BME280;57398;52.032;4.376;2023-10-08T03:26:44;102915.41;;;16.20;nan
70053;BME280;57398;52.032;4.376;2023-10-08T03:29:33;102927.69;;;16.12;nan
70053;BME280;57398;52.032;4.376;2023-10-08T03:32:27;102937.19;;;16.07;nan
70053;BME280;57398;52.032;4.376;2023-10-08T03:35:21;102943.03;;;16.02;nan
70053;BME280;57398;52.032;4.376;2023-10-08T03:38:14;102950.50;;;15.99;nan
70053;BME280;57398;52.032;4.376;2023-10-08T03:41:09;102942.44;;;16.00;nan
70053;BME280;57398;52.032;4.376;2023-10-08T03:44:03;102936.41;;;15.93;nan
70053;BME280;57398;52.032;4.376;2023-10-08T03:46:53;102941.22;;;15.96;nan
70053;BME280;57398;52.032;4.376;2023-10-08T03:49:44;102939.03;;;15.93;nan
70053;BME280;57398;52.032;4.376;2023-10-08T03:52:33;102954.31;;;15.89;nan
70053;BME280;57398;52.032;4.376;2023-10-08T03:55:24;102954.94;;;15.85;nan
70053;BME280;57398;52.032;4.376;2023-10-08T03:58:15;102953.34;;;15.84;nan
70053;BME280;57398;52.032;4.376;2023-10-08T04:01:14;102959.19;;;15.79;nan
70053;BME280;57398;52.032;4.376;2023-10-08T04:04:06;102972.69;;;15.76;nan
70053;BME280;57398;52.032;4.376;2023-10-08T04:06:59;102966.63;;;15.82;nan
70053;BME280;57398;52.032;4.376;2023-10-08T04:10:01;102972.91;;;16.01;nan
70053;BME280;57398;52.032;4.376;2023-10-08T04:13:03;102964.81;;;16.23;nan
70053;BME280;57398;52.032;4.376;2023-10-08T04:15:56;102961.56;;;16.21;nan
70053;BME280;57398;52.032;4.376;2023-10-08T04:18:46;102957.75;;;16.23;nan
70053;BME280;57398;52.032;4.376;2023-10-08T04:21:37;102962.59;;;16.26;nan
70053;BME280;57398;52.032;4.376;2023-10-08T04:24:28;102957.97;;;16.22;nan
70053;BME280;57398;52.032;4.376;2023-10-08T04:27:21;102962.19;;;16.16;nan
70053;BME280;57398;52.032;4.376;2023-10-08T04:30:11;102949.88;;;16.10;nan
70053;BME280;57398;52.032;4.376;2023-10-08T04:33:03;102947.47;;;16.08;nan
70053;BME280;57398;52.032;4.376;2023-10-08T04:35:53;102953.34;;;16.10;nan
70053;BME280;57398;52.032;4.376;2023-10-08T04:41:34;102970.47;;;16.06;nan
70053;BME280;57398;52.032;4.376;2023-10-08T04:44:29;102981.56;;;16.08;nan
70053;BME280;57398;52.032;4.376;2023-10-08T04:47:18;102983.97;;;16.03;nan
70053;BME280;57398;52.032;4.376;2023-10-08T04:50:19;102995.06;;;15.99;nan
70053;BME280;57398;52.032;4.376;2023-10-08T04:53:08;102999.31;;;15.93;nan
70053;BME280;57398;52.032;4.376;2023-10-08T04:55:58;103005.56;;;15.85;nan
70053;BME280;57398;52.032;4.376;2023-10-08T04:58:49;103004.75;;;15.78;nan
70053;BME280;57398;52.032;4.376;2023-10-08T05:01:38;102989.00;;;15.72;nan
70053;BME280;57398;52.032;4.376;2023-10-08T05:04:34;102985.56;;;15.71;nan
70053;BME280;57398;52.032;4.376;2023-10-08T05:07:35;102965.41;;;15.65;nan
70053;BME280;57398;52.032;4.376;2023-10-08T05:10:47;102983.91;;;15.63;nan
70053;BME280;57398;52.032;4.376;2023-10-08T05:13:48;102994.81;;;15.60;nan
70053;BME280;57398;52.032;4.376;2023-10-08T05:16:49;103010.28;;;15.42;nan
70053;BME280;57398;52.032;4.376;2023-10-08T05:19:48;103012.69;;;15.43;nan
70053;BME280;57398;52.032;4.376;2023-10-08T05:22:49;102998.38;;;15.39;nan
70053;BME280;57398;52.032;4.376;2023-10-08T05:25:42;103011.47;;;15.33;nan
70053;BME280;57398;52.032;4.376;2023-10-08T05:28:44;103012.06;;;15.28;nan
70053;BME280;57398;52.032;4.376;2023-10-08T05:31:47;102997.91;;;15.22;nan
70053;BME280;57398;52.032;4.376;2023-10-08T05:34:40;103001.75;;;15.20;nan
70053;BME280;57398;52.032;4.376;2023-10-08T05:37:38;102988.44;;;15.15;nan
70053;BME280;57398;52.032;4.376;2023-10-08T05:40:30;102985.81;;;15.15;nan
70053;BME280;57398;52.032;4.376;2023-10-08T05:43:51;102991.06;;;15.15;nan
70053;BME280;57398;52.032;4.376;2023-10-08T05:46:56;103009.56;;;15.13;nan
70053;BME280;57398;52.032;4.376;2023-10-08T05:50:10;103028.56;;;15.28;nan
70053;BME280;57398;52.032;4.376;2023-10-08T05:53:25;103022.31;;;15.29;nan
70053;BME280;57398;52.032;4.376;2023-10-08T05:56:32;103024.72;;;15.24;nan
70053;BME280;57398;52.032;4.376;2023-10-08T05:59:40;103035.16;;;15.18;nan
70053;BME280;57398;52.032;4.376;2023-10-08T06:03:00;103034.09;;;15.05;nan
70053;BME280;57398;52.032;4.376;2023-10-08T06:05:56;103036.50;;;15.00;nan
70053;BME280;57398;52.032;4.376;2023-10-08T06:09:09;103047.56;;;14.96;nan
70053;BME280;57398;52.032;4.376;2023-10-08T06:12:09;103041.25;;;14.90;nan
70053;BME280;57398;52.032;4.376;2023-10-08T06:15:07;103060.75;;;14.81;nan
70053;BME280;57398;52.032;4.376;2023-10-08T06:17:55;103063.94;;;14.76;nan
70053;BME280;57398;52.032;4.376;2023-10-08T06:20:45;103064.94;;;14.75;nan
70053;BME280;57398;52.032;4.376;2023-10-08T06:23:35;103063.69;;;14.71;nan
70053;BME280;57398;52.032;4.376;2023-10-08T06:26:24;103081.00;;;14.72;nan
70053;BME280;57398;52.032;4.376;2023-10-08T06:29:13;103082.81;;;14.72;nan
70053;BME280;57398;52.032;4.376;2023-10-08T06:32:14;103075.72;;;14.65;nan
70053;BME280;57398;52.032;4.376;2023-10-08T06:35:03;103066.31;;;14.71;nan
70053;BME280;57398;52.032;4.376;2023-10-08T06:40:42;103065.69;;;14.69;nan
70053;BME280;57398;52.032;4.376;2023-10-08T06:43:31;103089.00;;;14.64;nan
70053;BME280;57398;52.032;4.376;2023-10-08T06:46:23;103098.47;;;14.65;nan
70053;BME280;57398;52.032;4.376;2023-10-08T06:49:15;103110.56;;;14.66;nan
70053;BME280;57398;52.032;4.376;2023-10-08T06:52:05;103114.38;;;14.70;nan
70053;BME280;57398;52.032;4.376;2023-10-08T06:54:58;103112.78;;;14.69;nan
70053;BME280;57398;52.032;4.376;2023-10-08T06:57:49;103126.09;;;14.74;nan
70053;BME280;57398;52.032;4.376;2023-10-08T07:00:38;103128.09;;;14.72;nan
70053;BME280;57398;52.032;4.376;2023-10-08T07:03:28;103122.69;;;14.74;nan
70053;BME280;57398;52.032;4.376;2023-10-08T07:06:18;103132.47;;;14.65;nan
70053;BME280;57398;52.032;4.376;2023-10-08T07:09:18;103126.59;;;14.63;nan
70053;BME280;57398;52.032;4.376;2023-10-08T07:12:17;103125.63;;;14.64;nan
70053;BME280;57398;52.032;4.376;2023-10-08T07:15:07;103137.06;;;14.63;nan
70053;BME280;57398;52.032;4.376;2023-10-08T07:17:59;103153.16;;;14.60;nan
70053;BME280;57398;52.032;4.376;2023-10-08T07:20:57;103159.75;;;14.56;nan
70053;BME280;57398;52.032;4.376;2023-10-08T07:23:48;103166.84;;;14.62;nan
70053;BME280;57398;52.032;4.376;2023-10-08T07:26:44;103164.88;;;14.64;nan
70053;BME280;57398;52.032;4.376;2023-10-08T07:29:35;103170.84;;;14.58;nan
70053;BME280;57398;52.032;4.376;2023-10-08T07:32:23;103171.84;;;14.57;nan
70053;BME280;57398;52.032;4.376;2023-10-08T07:35:12;103165.78;;;14.56;nan
70053;BME280;57398;52.032;4.376;2023-10-08T07:38:11;103176.06;;;14.58;nan
70053;BME280;57398;52.032;4.376;2023-10-08T07:41:00;103186.91;;;14.55;nan
70053;BME280;57398;52.032;4.376;2023-10-08T07:43:49;103190.06;;;14.50;nan
70053;BME280;57398;52.032;4.376;2023-10-08T07:49:31;103197.94;;;14.35;nan
70053;BME280;57398;52.032;4.376;2023-10-08T07:52:19;103201.38;;;14.36;nan
70053;BME280;57398;52.032;4.376;2023-10-08T07:55:09;103206.56;;;14.51;nan
70053;BME280;57398;52.032;4.376;2023-10-08T07:58:04;103205.94;;;14.70;nan
70053;BME280;57398;52.032;4.376;2023-10-08T08:00:56;103202.97;;;14.73;nan
70053;BME280;57398;52.032;4.376;2023-10-08T08:03:47;103220.34;;;14.81;nan
70053;BME280;57398;52.032;4.376;2023-10-08T08:06:37;103237.25;;;15.06;nan
70053;BME280;57398;52.032;4.376;2023-10-08T08:09:25;103240.94;;;15.12;nan
70053;BME280;57398;52.032;4.376;2023-10-08T08:12:14;103250.22;;;14.93;nan
70053;BME280;57398;52.032;4.376;2023-10-08T08:15:03;103252.78;;;15.08;nan
70053;BME280;57398;52.032;4.376;2023-10-08T08:18:01;103257.88;;;15.16;nan
70053;BME280;57398;52.032;4.376;2023-10-08T08:20:52;103271.16;;;15.15;nan
70053;BME280;57398;52.032;4.376;2023-10-08T08:23:42;103268.03;;;15.26;nan
70053;BME280;57398;52.032;4.376;2023-10-08T08:26:34;103270.28;;;15.29;nan
70053;BME280;57398;52.032;4.376;2023-10-08T08:29:32;103259.97;;;15.27;nan
70053;BME280;57398;52.032;4.376;2023-10-08T08:32:31;103267.34;;;15.45;nan
70053;BME280;57398;52.032;4.376;2023-10-08T08:35:19;103267.97;;;15.47;nan
70053;BME280;57398;52.032;4.376;2023-10-08T08:38:07;103259.50;;;15.45;nan
70053;BME280;57398;52.032;4.376;2023-10-08T08:41:01;103264.97;;;15.50;nan
70053;BME280;57398;52.032;4.376;2023-10-08T08:43:54;103275.00;;;15.40;nan
70053;BME280;57398;52.032;4.376;2023-10-08T08:46:47;103284.28;;;15.43;nan
70053;BME280;57398;52.032;4.376;2023-10-08T08:49:36;103287.75;;;15.50;nan
70053;BME280;57398;52.032;4.376;2023-10-08T08:52:25;103291.56;;;15.47;nan
70053;BME280;57398;52.032;4.376;2023-10-08T08:55:14;103298.84;;;15.52;nan
70053;BME280;57398;52.032;4.376;2023-10-08T08:58:05;103283.75;;;15.54;nan
70053;BME280;57398;52.032;4.376;2023-10-08T09:00:59;103284.44;;;15.41;nan
70053;BME280;57398;52.032;4.376;2023-10-08T09:03:49;103284.38;;;15.28;nan
70053;BME280;57398;52.032;4.376;2023-10-08T09:06:38;103276.97;;;15.38;nan
70053;BME280;57398;52.032;4.376;2023-10-08T09:09:31;103276.59;;;15.41;nan
70053;BME280;57398;52.032;4.376;2023-10-08T09:12:19;103286.50;;;15.46;nan
70053;BME280;57398;52.032;4.376;2023-10-08T09:15:10;103276.91;;;15.53;nan
70053;BME280;57398;52.032;4.376;2023-10-08T09:17:59;103276.50;;;15.56;nan
70053;BME280;57398;52.032;4.376;2023-10-08T09:20:49;103265.81;;;15.51;nan
70053;BME280;57398;52.032;4.376;2023-10-08T09:23:41;103273.28;;;15.54;nan
70053;BME280;57398;52.032;4.376;2023-10-08T09:26:37;103265.69;;;15.38;nan
70053;BME280;57398;52.032;4.376;2023-10-08T09:29:27;103260.34;;;15.53;nan
70053;BME280;57398;52.032;4.376;2023-10-08T09:32:15;103271.34;;;15.69;nan
70053;BME280;57398;52.032;4.376;2023-10-08T09:35:10;103276.91;;;15.60;nan
70053;BME280;57398;52.032;4.376;2023-10-08T09:38:02;103290.13;;;15.73;nan
70053;BME280;57398;52.032;4.376;2023-10-08T09:40:51;103277.91;;;15.87;nan
70053;BME280;57398;52.032;4.376;2023-10-08T09:43:41;103268.47;;;15.93;nan
70053;BME280;57398;52.032;4.376;2023-10-08T09:46:30;103265.44;;;15.89;nan
70053;BME280;57398;52.032;4.376;2023-10-08T09:49:26;103271.72;;;15.95;nan
70053;BME280;57398;52.032;4.376;2023-10-08T09:52:24;103268.63;;;15.84;nan
70053;BME280;57398;52.032;4.376;2023-10-08T09:55:17;103271.50;;;15.96;nan
70053;BME280;57398;52.032;4.376;2023-10-08T09:58:08;103283.84;;;16.02;nan
70053;BME280;57398;52.032;4.376;2023-10-08T10:01:00;103272.22;;;16.18;nan
70053;BME280;57398;52.032;4.376;2023-10-08T10:03:51;103265.19;;;16.25;nan
70053;BME280;57398;52.032;4.376;2023-10-08T10:09:34;103276.06;;;16.22;nan
70053;BME280;57398;52.032;4.376;2023-10-08T10:12:26;103281.44;;;16.07;nan
70053;BME280;57398;52.032;4.376;2023-10-08T10:15:15;103285.41;;;16.51;nan
70053;BME280;57398;52.032;4.376;2023-10-08T10:18:27;103276.78;;;16.64;nan
70053;BME280;57398;52.032;4.376;2023-10-08T10:21:27;103276.66;;;16.79;nan
70053;BME280;57398;52.032;4.376;2023-10-08T10:24:32;103282.06;;;16.78;nan
70053;BME280;57398;52.032;4.376;2023-10-08T10:27:21;103276.88;;;16.98;nan
70053;BME280;57398;52.032;4.376;2023-10-08T10:30:11;103281.31;;;17.24;nan
70053;BME280;57398;52.032;4.376;2023-10-08T10:33:08;103278.06;;;17.35;nan
70053;BME280;57398;52.032;4.376;2023-10-08T10:36:00;103283.53;;;17.07;nan
70053;BME280;57398;52.032;4.376;2023-10-08T10:38:51;103298.06;;;17.03;nan
70053;BME280;57398;52.032;4.376;2023-10-08T10:41:41;103290.81;;;17.18;nan
70053;BME280;57398;52.032;4.376;2023-10-08T10:44:30;103284.34;;;17.14;nan
70053;BME280;57398;52.032;4.376;2023-10-08T10:47:20;103276.66;;;17.26;nan
70053;BME280;57398;52.032;4.376;2023-10-08T10:50:14;103278.06;;;17.35;nan
70053;BME280;57398;52.032;4.376;2023-10-08T10:53:14;103282.72;;;17.26;nan
70053;BME280;57398;52.032;4.376;2023-10-08T10:56:03;103291.41;;;17.27;nan
70053;BME280;57398;52.032;4.376;2023-10-08T10:58:58;103278.84;;;17.42;nan
70053;BME280;57398;52.032;4.376;2023-10-08T11:01:47;103271.38;;;17.52;nan
70053;BME280;57398;52.032;4.376;2023-10-08T11:04:40;103273.84;;;17.21;nan
70053;BME280;57398;52.032;4.376;2023-10-08T11:07:34;103281.09;;;17.12;nan
70053;BME280;57398;52.032;4.376;2023-10-08T11:10:27;103271.41;;;17.32;nan
70053;BME280;57398;52.032;4.376;2023-10-08T11:13:19;103259.84;;;17.60;nan
70053;BME280;57398;52.032;4.376;2023-10-08T11:16:08;103249.69;;;17.64;nan
70053;BME280;57398;52.032;4.376;2023-10-08T11:19:00;103275.78;;;17.65;nan
70053;BME280;57398;52.032;4.376;2023-10-08T11:21:55;103258.44;;;17.37;nan
70053;BME280;57398;52.032;4.376;2023-10-08T11:24:43;103266.13;;;17.52;nan
70053;BME280;57398;52.032;4.376;2023-10-08T11:27:34;103261.13;;;18.03;nan
70053;BME280;57398;52.032;4.376;2023-10-08T11:30:25;103266.03;;;17.92;nan
70053;BME280;57398;52.032;4.376;2023-10-08T11:33:17;103258.31;;;17.97;nan
70053;BME280;57398;52.032;4.376;2023-10-08T11:39:10;103256.75;;;17.76;nan
70053;BME280;57398;52.032;4.376;2023-10-08T11:42:08;103264.22;;;17.73;nan
70053;BME280;57398;52.032;4.376;2023-10-08T11:45:12;103261.75;;;17.98;nan
70053;BME280;57398;52.032;4.376;2023-10-08T11:48:10;103257.38;;;17.65;nan
70053;BME280;57398;52.032;4.376;2023-10-08T11:51:00;103252.38;;;17.57;nan
70053;BME280;57398;52.032;4.376;2023-10-08T11:53:48;103252.53;;;17.75;nan
70053;BME280;57398;52.032;4.376;2023-10-08T11:56:38;103254.34;;;17.68;nan
70053;BME280;57398;52.032;4.376;2023-10-08T11:59:26;103249.50;;;17.65;nan
70053;BME280;57398;52.032;4.376;2023-10-08T12:02:16;103240.53;;;17.79;nan
70053;BME280;57398;52.032;4.376;2023-10-08T12:05:08;103235.53;;;18.23;nan
70053;BME280;57398;52.032;4.376;2023-10-08T12:08:05;103213.28;;;18.26;nan
70053;BME280;57398;52.032;4.376;2023-10-08T12:10:55;103217.22;;;18.10;nan
70053;BME280;57398;52.032;4.376;2023-10-08T12:13:44;103214.84;;;17.95;nan
70053;BME280;57398;52.032;4.376;2023-10-08T12:16:33;103212.25;;;18.27;nan
70053;BME280;57398;52.032;4.376;2023-10-08T12:19:23;103201.13;;;18.25;nan
70053;BME280;57398;52.032;4.376;2023-10-08T12:22:13;103201.00;;;18.13;nan
70053;BME280;57398;52.032;4.376;2023-10-08T12:25:07;103195.44;;;18.28;nan
70053;BME280;57398;52.032;4.376;2023-10-08T12:27:55;103187.88;;;18.38;nan
70053;BME280;57398;52.032;4.376;2023-10-08T12:30:45;103180.63;;;18.33;nan
70053;BME280;57398;52.032;4.376;2023-10-08T12:33:33;103187.84;;;18.45;nan
70053;BME280;57398;52.032;4.376;2023-10-08T12:39:10;103175.28;;;18.72;nan
70053;BME280;57398;52.032;4.376;2023-10-08T12:42:02;103164.41;;;18.61;nan
70053;BME280;57398;52.032;4.376;2023-10-08T12:44:52;103161.28;;;18.46;nan
70053;BME280;57398;52.032;4.376;2023-10-08T12:47:43;103169.91;;;18.60;nan
70053;BME280;57398;52.032;4.376;2023-10-08T12:50:33;103161.69;;;18.50;nan
70053;BME280;57398;52.032;4.376;2023-10-08T12:53:29;103156.16;;;18.33;nan
70053;BME280;57398;52.032;4.376;2023-10-08T12:56:21;103155.13;;;18.34;nan
70053;BME280;57398;52.032;4.376;2023-10-08T12:59:18;103153.19;;;18.23;nan
70053;BME280;57398;52.032;4.376;2023-10-08T13:02:08;103151.78;;;18.20;nan
70053;BME280;57398;52.032;4.376;2023-10-08T13:04:59;103148.06;;;18.28;nan
70053;BME280;57398;52.032;4.376;2023-10-08T13:07:47;103148.63;;;18.36;nan
70053;BME280;57398;52.032;4.376;2023-10-08T13:10:35;103144.34;;;18.42;nan
70053;BME280;57398;52.032;4.376;2023-10-08T13:13:28;103152.88;;;18.37;nan
70053;BME280;57398;52.032;4.376;2023-10-08T13:16:17;103157.31;;;18.37;nan
70053;BME280;57398;52.032;4.376;2023-10-08T13:19:05;103145.34;;;18.66;nan
70053;BME280;57398;52.032;4.376;2023-10-08T13:21:57;103143.31;;;18.68;nan
70053;BME280;57398;52.032;4.376;2023-10-08T13:24:45;103140.00;;;18.79;nan
70053;BME280;57398;52.032;4.376;2023-10-08T13:27:36;103137.19;;;18.74;nan
70053;BME280;57398;52.032;4.376;2023-10-08T13:30:26;103146.50;;;18.77;nan
70053;BME280;57398;52.032;4.376;2023-10-08T13:33:14;103147.19;;;18.66;nan
70053;BME280;57398;52.032;4.376;2023-10-08T13:36:03;103136.94;;;18.76;nan
70053;BME280;57398;52.032;4.376;2023-10-08T13:39:06;103131.53;;;18.71;nan
70053;BME280;57398;52.032;4.376;2023-10-08T13:41:56;103136.38;;;18.74;nan
70053;BME280;57398;52.032;4.376;2023-10-08T13:44:48;103136.66;;;18.91;nan
70053;BME280;57398;52.032;4.376;2023-10-08T13:47:36;103131.78;;;18.69;nan
70053;BME280;57398;52.032;4.376;2023-10-08T13:50:26;103131.13;;;18.74;nan
70053;BME280;57398;52.032;4.376;2023-10-08T13:53:17;103119.16;;;18.96;nan
70053;BME280;57398;52.032;4.376;2023-10-08T13:56:08;103120.47;;;18.87;nan
70053;BME280;57398;52.032;4.376;2023-10-08T13:58:59;103116.69;;;19.01;nan
70053;BME280;57398;52.032;4.376;2023-10-08T14:04:42;103110.91;;;18.93;nan
70053;BME280;57398;52.032;4.376;2023-10-08T14:07:31;103111.44;;;19.01;nan
70053;BME280;57398;52.032;4.376;2023-10-08T14:10:22;103098.91;;;19.15;nan
70053;BME280;57398;52.032;4.376;2023-10-08T14:13:17;103107.22;;;19.31;nan
70053;BME280;57398;52.032;4.376;2023-10-08T14:16:06;103101.16;;;19.30;nan
70053;BME280;57398;52.032;4.376;2023-10-08T14:18:55;103100.63;;;19.21;nan
70053;BME280;57398;52.032;4.376;2023-10-08T14:21:47;103098.59;;;19.23;nan
70053;BME280;57398;52.032;4.376;2023-10-08T14:24:40;103094.59;;;19.02;nan
70053;BME280;57398;52.032;4.376;2023-10-08T14:27:31;103096.84;;;19.17;nan
70053;BME280;57398;52.032;4.376;2023-10-08T14:30:21;103090.63;;;19.12;nan
70053;BME280;57398;52.032;4.376;2023-10-08T14:33:11;103078.31;;;19.05;nan
70053;BME280;57398;52.032;4.376;2023-10-08T14:36:10;103062.34;;;19.37;nan
70053;BME280;57398;52.032;4.376;2023-10-08T14:39:16;103063.97;;;19.38;nan
70053;BME280;57398;52.032;4.376;2023-10-08T14:42:36;103064.47;;;19.29;nan
70053;BME280;57398;52.032;4.376;2023-10-08T14:45:43;103064.41;;;19.17;nan
70053;BME280;57398;52.032;4.376;2023-10-08T14:48:33;103066.56;;;19.08;nan
70053;BME280;57398;52.032;4.376;2023-10-08T14:51:23;103060.88;;;18.93;nan
70053;BME280;57398;52.032;4.376;2023-10-08T14:54:11;103065.94;;;18.69;nan
70053;BME280;57398;52.032;4.376;2023-10-08T14:57:01;103061.81;;;18.55;nan
70053;BME280;57398;52.032;4.376;2023-10-08T14:59:49;103065.44;;;18.35;nan
70053;BME280;57398;52.032;4.376;2023-10-08T15:02:40;103075.00;;;18.30;nan
70053;BME280;57398;52.032;4.376;2023-10-08T15:05:29;103065.75;;;18.20;nan
70053;BME280;57398;52.032;4.376;2023-10-08T15:08:18;103048.59;;;18.18;nan
70053;BME280;57398;52.032;4.376;2023-10-08T15:11:06;103050.28;;;18.12;nan
70053;BME280;57398;52.032;4.376;2023-10-08T15:13:57;103048.63;;;18.11;nan
70053;BME280;57398;52.032;4.376;2023-10-08T15:16:46;103049.19;;;18.20;nan
70053;BME280;57398;52.032;4.376;2023-10-08T15:19:40;103048.34;;;18.26;nan
70053;BME280;57398;52.032;4.376;2023-10-08T15:22:28;103035.88;;;18.15;nan
70053;BME280;57398;52.032;4.376;2023-10-08T15:25:17;103042.31;;;18.19;nan
70053;BME280;57398;52.032;4.376;2023-10-08T15:28:06;103038.66;;;17.95;nan
70053;BME280;57398;52.032;4.376;2023-10-08T15:30:54;103033.78;;;17.98;nan
70053;BME280;57398;52.032;4.376;2023-10-08T15:33:43;103023.16;;;17.80;nan
70053;BME280;57398;52.032;4.376;2023-10-08T15:36:33;103024.19;;;17.79;nan
70053;BME280;57398;52.032;4.376;2023-10-08T15:39:22;103019.19;;;17.71;nan
70053;BME280;57398;52.032;4.376;2023-10-08T15:42:10;103023.41;;;17.72;nan
70053;BME280;57398;52.032;4.376;2023-10-08T15:44:58;103011.47;;;17.76;nan
70053;BME280;57398;52.032;4.376;2023-10-08T15:47:46;103014.22;;;17.56;nan
70053;BME280;57398;52.032;4.376;2023-10-08T15:50:36;103010.19;;;17.53;nan
70053;BME280;57398;52.032;4.376;2023-10-08T15:53:25;103009.00;;;17.49;nan
70053;BME280;57398;52.032;4.376;2023-10-08T15:56:13;103011.00;;;17.54;nan
70053;BME280;57398;52.032;4.376;2023-10-08T15:59:01;103002.31;;;17.53;nan